createdAt,value
2018-07-21T00:00:08.932Z,100526.00
2018-07-21T00:02:38.134Z,100529.00
2018-07-21T00:05:07.298Z,100525.00
2018-07-21T00:07:36.449Z,100531.00
2018-07-21T00:10:05.775Z,100531.00
2018-07-21T00:12:34.890Z,100529.00
2018-07-21T00:15:04.226Z,100505.00
2018-07-21T00:17:33.380Z,100533.00
2018-07-21T00:20:02.437Z,100528.00
2018-07-21T00:22:31.605Z,100529.00
2018-07-21T00:25:00.668Z,100535.00
2018-07-21T00:27:29.790Z,100536.00
2018-07-21T00:29:58.896Z,100539.00
2018-07-21T00:32:27.977Z,100537.00
2018-07-21T00:34:57.068Z,100533.00
2018-07-21T00:37:26.164Z,100540.00
2018-07-21T00:39:55.303Z,100538.00
2018-07-21T00:42:24.501Z,100534.00
2018-07-21T00:44:53.721Z,100531.00
2018-07-21T00:47:22.941Z,100531.00
2018-07-21T00:49:52.120Z,100525.00
2018-07-21T00:52:21.373Z,100527.00
2018-07-21T00:54:50.632Z,100529.00
2018-07-21T00:57:19.546Z,100526.00
2018-07-21T00:59:48.705Z,100524.00
2018-07-21T01:02:17.846Z,100516.00
2018-07-21T01:04:46.957Z,100523.00
2018-07-21T01:07:16.147Z,100523.00
2018-07-21T01:09:45.228Z,100525.00
2018-07-21T01:12:14.478Z,100535.00
2018-07-21T01:14:43.641Z,100528.00
2018-07-21T01:17:12.718Z,100524.00
2018-07-21T01:19:41.811Z,100527.00
2018-07-21T01:22:10.982Z,100517.00
2018-07-21T01:24:40.210Z,100530.00
2018-07-21T01:27:09.477Z,100519.00
2018-07-21T01:29:38.546Z,100529.00
2018-07-21T01:32:08.502Z,100520.00
2018-07-21T01:34:37.553Z,100531.00
2018-07-21T01:37:06.713Z,100534.00
2018-07-21T01:39:35.944Z,100537.00
2018-07-21T01:42:05.423Z,100536.00
2018-07-21T01:44:34.617Z,100535.00
2018-07-21T01:47:05.836Z,100543.00
2018-07-21T01:49:35.113Z,100539.00
2018-07-21T01:52:04.293Z,100543.00
2018-07-21T01:54:33.421Z,100546.00
2018-07-21T01:57:02.520Z,100545.00
2018-07-21T01:59:31.581Z,100544.00
2018-07-21T02:02:00.940Z,100551.00
2018-07-21T02:04:30.058Z,100545.00
2018-07-21T02:06:59.171Z,100540.00
2018-07-21T02:09:28.246Z,100546.00
2018-07-21T02:11:57.429Z,100549.00
2018-07-21T02:14:26.568Z,100545.00
2018-07-21T02:16:55.741Z,100543.00
2018-07-21T02:19:24.856Z,100538.00
2018-07-21T02:21:53.922Z,100538.00
2018-07-21T02:24:23.033Z,100534.00
2018-07-21T02:26:52.143Z,100539.00
2018-07-21T02:29:21.249Z,100538.00
2018-07-21T02:31:50.381Z,100534.00
2018-07-21T02:34:19.473Z,100534.00
2018-07-21T02:36:48.645Z,100533.00
2018-07-21T02:39:18.699Z,100526.00
2018-07-21T02:41:47.999Z,100530.00
2018-07-21T02:44:17.146Z,100533.00
2018-07-21T02:46:46.534Z,100530.00
2018-07-21T02:49:15.752Z,100530.00
2018-07-21T02:51:44.960Z,100512.00
2018-07-21T02:54:14.144Z,100527.00
2018-07-21T02:56:43.336Z,100528.00
2018-07-21T02:59:12.425Z,100525.00
2018-07-21T03:01:42.239Z,100532.00
2018-07-21T03:04:11.371Z,100523.00
2018-07-21T03:06:40.505Z,100522.00
2018-07-21T03:09:11.687Z,100530.00
2018-07-21T03:11:41.361Z,100522.00
2018-07-21T03:14:10.651Z,100526.00
2018-07-21T03:16:40.008Z,100519.00
2018-07-21T03:19:10.512Z,100528.00
2018-07-21T03:21:39.732Z,100524.00
2018-07-21T03:24:08.939Z,100520.00
2018-07-21T03:26:38.089Z,100520.00
2018-07-21T03:29:07.261Z,100521.00
2018-07-21T03:31:36.352Z,100526.00
2018-07-21T03:34:05.499Z,100517.00
2018-07-21T03:36:34.597Z,100521.00
2018-07-21T03:39:04.152Z,100524.00
2018-07-21T03:41:33.250Z,100524.00
2018-07-21T03:44:02.327Z,100522.00
2018-07-21T03:46:31.411Z,100522.00
2018-07-21T03:49:00.444Z,100521.00
2018-07-21T03:51:30.556Z,100518.00
2018-07-21T03:53:59.619Z,100512.00
2018-07-21T03:56:28.702Z,100504.00
2018-07-21T03:58:57.859Z,100511.00
2018-07-21T04:01:26.969Z,100515.00
2018-07-21T04:03:56.109Z,100506.00
2018-07-21T04:06:25.245Z,100500.00
2018-07-21T04:08:54.616Z,100501.00
2018-07-21T04:11:23.710Z,100508.00
2018-07-21T04:13:52.828Z,100506.00
2018-07-21T04:16:21.933Z,100510.00
2018-07-21T04:18:51.032Z,100517.00
2018-07-21T04:21:20.145Z,100508.00
2018-07-21T04:23:49.206Z,100511.00
2018-07-21T04:26:19.475Z,100504.00
2018-07-21T04:28:48.701Z,100506.00
2018-07-21T04:31:17.854Z,100509.00
2018-07-21T04:33:46.965Z,100507.00
2018-07-21T04:36:16.197Z,100501.00
2018-07-21T04:38:45.281Z,100504.00
2018-07-21T04:41:14.479Z,100501.00
2018-07-21T04:43:43.683Z,100510.00
2018-07-21T04:46:12.803Z,100511.00
2018-07-21T04:48:42.005Z,100509.00
2018-07-21T04:51:11.107Z,100510.00
2018-07-21T04:53:40.267Z,100505.00
2018-07-21T04:56:09.359Z,100498.00
2018-07-21T04:58:39.472Z,100507.00
2018-07-21T05:01:08.670Z,100507.00
2018-07-21T05:03:37.761Z,100504.00
2018-07-21T05:06:06.849Z,100506.00
2018-07-21T05:08:36.079Z,100510.00
2018-07-21T05:11:05.950Z,100512.00
2018-07-21T05:13:35.279Z,100498.00
2018-07-21T05:16:04.331Z,100497.00
2018-07-21T05:18:33.955Z,100497.00
2018-07-21T05:21:03.119Z,100501.00
2018-07-21T05:23:32.318Z,100507.00
2018-07-21T05:26:01.386Z,100508.00
2018-07-21T05:28:30.505Z,100492.00
2018-07-21T05:30:59.717Z,100494.00
2018-07-21T05:33:28.803Z,100498.00
2018-07-21T05:35:57.996Z,100502.00
2018-07-21T05:38:27.161Z,100500.00
2018-07-21T05:40:56.269Z,100507.00
2018-07-21T05:43:25.413Z,100504.00
2018-07-21T05:45:54.566Z,100505.00
2018-07-21T05:48:23.874Z,100504.00
2018-07-21T05:50:53.004Z,100513.00
2018-07-21T05:53:22.105Z,100514.00
2018-07-21T05:55:51.231Z,100514.00
2018-07-21T05:58:20.472Z,100510.00
2018-07-21T06:00:49.384Z,100508.00
2018-07-21T06:03:18.566Z,100515.00
2018-07-21T06:05:47.679Z,100519.00
2018-07-21T06:08:16.882Z,100519.00
2018-07-21T06:10:46.150Z,100517.00
2018-07-21T06:13:15.421Z,100530.00
2018-07-21T06:15:48.733Z,100526.00
2018-07-21T06:18:18.014Z,100527.00
2018-07-21T06:20:47.226Z,100528.00
2018-07-21T06:23:16.793Z,100523.00
2018-07-21T06:25:45.931Z,100528.00
2018-07-21T06:28:15.351Z,100524.00
2018-07-21T06:30:51.485Z,100524.00
2018-07-21T06:33:20.891Z,100527.00
2018-07-21T06:35:50.192Z,100531.00
2018-07-21T06:38:19.593Z,100516.00
2018-07-21T06:40:48.725Z,100517.00
2018-07-21T06:43:18.649Z,100520.00
2018-07-21T06:45:47.783Z,100520.00
2018-07-21T06:48:16.623Z,100522.00
2018-07-21T06:50:45.704Z,100524.00
2018-07-21T06:53:14.779Z,100527.00
2018-07-21T06:55:43.881Z,100527.00
2018-07-21T06:58:13.015Z,100533.00
2018-07-21T07:00:42.118Z,100535.00
2018-07-21T07:03:11.798Z,100536.00
2018-07-21T07:05:40.852Z,100539.00
2018-07-21T07:08:09.923Z,100540.00
2018-07-21T07:10:39.035Z,100540.00
2018-07-21T07:13:08.163Z,100549.00
2018-07-21T07:15:37.336Z,100543.00
2018-07-21T07:18:06.511Z,100546.00
2018-07-21T07:20:35.845Z,100549.00
2018-07-21T07:23:04.960Z,100542.00
2018-07-21T07:25:34.063Z,100550.00
2018-07-21T07:28:03.215Z,100543.00
2018-07-21T07:30:32.338Z,100543.00
2018-07-21T07:33:01.514Z,100548.00
2018-07-21T07:35:30.755Z,100539.00
2018-07-21T07:38:00.254Z,100546.00
2018-07-21T07:40:29.795Z,100544.00
2018-07-21T07:42:58.951Z,100548.00
2018-07-21T07:45:28.260Z,100547.00
2018-07-21T07:47:57.416Z,100549.00
2018-07-21T07:50:26.555Z,100556.00
2018-07-21T07:52:55.632Z,100557.00
2018-07-21T07:55:24.737Z,100557.00
2018-07-21T07:57:53.882Z,100551.00
2018-07-21T08:00:22.979Z,100552.00
2018-07-21T08:02:52.026Z,100551.00
2018-07-21T08:05:21.154Z,100550.00
2018-07-21T08:07:50.006Z,100553.00
2018-07-21T08:10:19.127Z,100556.00
2018-07-21T08:12:48.211Z,100558.00
2018-07-21T08:15:18.394Z,100559.00
2018-07-21T08:17:47.524Z,100560.00
2018-07-21T08:20:19.226Z,100556.00
2018-07-21T08:22:48.432Z,100553.00
2018-07-21T08:25:17.561Z,100552.00
2018-07-21T08:27:46.741Z,100547.00
2018-07-21T08:30:15.896Z,100551.00
2018-07-21T08:32:45.005Z,100553.00
2018-07-21T08:35:14.227Z,100548.00
2018-07-21T08:37:43.426Z,100543.00
2018-07-21T08:40:12.737Z,100540.00
2018-07-21T08:42:42.172Z,100532.00
2018-07-21T08:45:11.595Z,100531.00
2018-07-21T08:47:41.163Z,100537.00
2018-07-21T08:50:19.172Z,100532.00
2018-07-21T08:52:48.815Z,100527.00
2018-07-21T08:55:18.157Z,100523.00
2018-07-21T08:57:47.576Z,100515.00
2018-07-21T09:00:16.920Z,100511.00
2018-07-21T09:02:46.406Z,100517.00
2018-07-21T09:05:16.142Z,100516.00
2018-07-21T09:07:45.506Z,100521.00
2018-07-21T09:10:14.782Z,100517.00
2018-07-21T09:12:44.044Z,100528.00
2018-07-21T09:15:13.335Z,100518.00
2018-07-21T09:17:42.489Z,100520.00
2018-07-21T09:20:12.315Z,100514.00
2018-07-21T09:22:42.246Z,100515.00
2018-07-21T09:25:11.733Z,100513.00
2018-07-21T09:27:41.175Z,100517.00
2018-07-21T09:30:10.765Z,100517.00
2018-07-21T09:32:40.616Z,100518.00
2018-07-21T09:35:09.810Z,100514.00
2018-07-21T09:37:38.976Z,100512.00
2018-07-21T09:40:08.402Z,100511.00
2018-07-21T09:42:37.467Z,100507.00
2018-07-21T09:45:06.623Z,100506.00
2018-07-21T09:47:35.840Z,100508.00
2018-07-21T09:50:06.051Z,100517.00
2018-07-21T09:52:35.268Z,100510.00
2018-07-21T09:55:04.485Z,100509.00
2018-07-21T09:57:33.699Z,100502.00
2018-07-21T10:00:02.821Z,100501.00
2018-07-21T10:02:32.242Z,100502.00
2018-07-21T10:05:01.423Z,100496.00
2018-07-21T10:07:30.630Z,100504.00
2018-07-21T10:09:59.838Z,100503.00
2018-07-21T10:12:29.143Z,100497.00
2018-07-21T10:14:59.005Z,100497.00
2018-07-21T10:17:28.519Z,100492.00
2018-07-21T10:19:57.939Z,100492.00
2018-07-21T10:22:27.399Z,100491.00
2018-07-21T10:25:02.182Z,100490.00
2018-07-21T10:27:36.544Z,100494.00
2018-07-21T10:30:06.396Z,100492.00
2018-07-21T10:32:37.555Z,100494.00
2018-07-21T10:35:06.910Z,100488.00
2018-07-21T10:37:36.222Z,100487.00
2018-07-21T10:40:05.364Z,100479.00
2018-07-21T10:42:34.241Z,100483.00
2018-07-21T10:45:03.663Z,100480.00
2018-07-21T10:47:32.849Z,100476.00
2018-07-21T10:50:02.068Z,100475.00
2018-07-21T10:52:31.883Z,100476.00
2018-07-21T10:55:01.276Z,100485.00
2018-07-21T10:57:30.470Z,100482.00
2018-07-21T10:59:59.596Z,100492.00
2018-07-21T11:02:28.837Z,100481.00
2018-07-21T11:04:57.947Z,100481.00
2018-07-21T11:07:26.857Z,100472.00
2018-07-21T11:09:55.957Z,100471.00
2018-07-21T11:12:25.215Z,100477.00
2018-07-21T11:14:54.441Z,100478.00
2018-07-21T11:17:23.593Z,100476.00
2018-07-21T11:19:52.642Z,100472.00
2018-07-21T11:22:21.737Z,100476.00
2018-07-21T11:24:50.868Z,100485.00
2018-07-21T11:27:20.035Z,100480.00
2018-07-21T11:29:49.153Z,100480.00
2018-07-21T11:32:18.382Z,100478.00
2018-07-21T11:34:47.681Z,100476.00
2018-07-21T11:37:16.825Z,100477.00
2018-07-21T11:39:46.024Z,100472.00
2018-07-21T11:42:15.417Z,100471.00
2018-07-21T11:44:44.842Z,100472.00
2018-07-21T11:47:14.208Z,100474.00
2018-07-21T11:49:43.357Z,100466.00
2018-07-21T11:52:13.105Z,100467.00
2018-07-21T11:54:42.261Z,100462.00
2018-07-21T11:57:12.081Z,100462.00
2018-07-21T11:59:41.263Z,100462.00
2018-07-21T12:02:10.520Z,100451.00
2018-07-21T12:04:39.787Z,100457.00
2018-07-21T12:07:08.983Z,100465.00
2018-07-21T12:09:38.132Z,100462.00
2018-07-21T12:12:07.545Z,100466.00
2018-07-21T12:14:36.663Z,100462.00
2018-07-21T12:17:05.875Z,100464.00
2018-07-21T12:19:34.975Z,100461.00
2018-07-21T12:22:04.224Z,100460.00
2018-07-21T12:24:33.355Z,100462.00
2018-07-21T12:27:02.446Z,100461.00
2018-07-21T12:29:31.605Z,100458.00
2018-07-21T12:32:00.744Z,100466.00
2018-07-21T12:34:29.946Z,100461.00
2018-07-21T12:36:59.086Z,100461.00
2018-07-21T12:39:28.153Z,100459.00
2018-07-21T12:41:57.251Z,100466.00
2018-07-21T12:44:26.469Z,100462.00
2018-07-21T12:46:55.634Z,100454.00
2018-07-21T12:49:24.818Z,100453.00
2018-07-21T12:51:53.899Z,100463.00
2018-07-21T12:54:23.119Z,100448.00
2018-07-21T12:56:52.409Z,100454.00
2018-07-21T12:59:22.229Z,100456.00
2018-07-21T13:01:51.711Z,100448.00
2018-07-21T13:04:20.962Z,100449.00
2018-07-21T13:06:50.379Z,100460.00
2018-07-21T13:09:19.764Z,100451.00
2018-07-21T13:11:51.179Z,100444.00
2018-07-21T13:14:20.481Z,100447.00
2018-07-21T13:16:49.638Z,100457.00
2018-07-21T13:19:18.780Z,100454.00
2018-07-21T13:21:47.925Z,100450.00
2018-07-21T13:24:17.087Z,100435.00
2018-07-21T13:26:46.194Z,100434.00
2018-07-21T13:29:15.350Z,100442.00
2018-07-21T13:31:44.526Z,100442.00
2018-07-21T13:34:13.723Z,100447.00
2018-07-21T13:36:42.804Z,100444.00
2018-07-21T13:39:12.849Z,100432.00
2018-07-21T13:41:41.980Z,100439.00
2018-07-21T13:44:11.160Z,100436.00
2018-07-21T13:46:40.191Z,100430.00
2018-07-21T13:49:09.495Z,100428.00
2018-07-21T13:51:38.681Z,100438.00
2018-07-21T13:54:07.805Z,100436.00
2018-07-21T13:56:37.052Z,100430.00
2018-07-21T13:59:06.319Z,100436.00
2018-07-21T14:01:35.612Z,100434.00
2018-07-21T14:04:04.729Z,100438.00
2018-07-21T14:06:34.110Z,100432.00
2018-07-21T14:09:03.447Z,100432.00
2018-07-21T14:11:33.098Z,100435.00
2018-07-21T14:14:03.381Z,100433.00
2018-07-21T14:16:32.639Z,100434.00
2018-07-21T14:19:02.594Z,100439.00
2018-07-21T14:21:31.906Z,100442.00
2018-07-21T14:24:01.337Z,100442.00
2018-07-21T14:26:31.077Z,100437.00
2018-07-21T14:29:00.187Z,100436.00
2018-07-21T14:31:29.382Z,100436.00
2018-07-21T14:33:58.571Z,100432.00
2018-07-21T14:36:27.827Z,100434.00
2018-07-21T14:38:56.869Z,100440.00
2018-07-21T14:41:26.256Z,100431.00
2018-07-21T14:43:55.379Z,100438.00
2018-07-21T14:46:24.788Z,100432.00
2018-07-21T14:48:53.945Z,100434.00
2018-07-21T14:51:23.113Z,100430.00
2018-07-21T14:53:52.359Z,100426.00
2018-07-21T14:56:21.607Z,100433.00
2018-07-21T14:58:50.774Z,100435.00
2018-07-21T15:01:20.050Z,100428.00
2018-07-21T15:03:49.274Z,100436.00
2018-07-21T15:06:18.260Z,100431.00
2018-07-21T15:08:47.599Z,100433.00
2018-07-21T15:11:16.764Z,100432.00
2018-07-21T15:13:45.998Z,100434.00
2018-07-21T15:16:16.955Z,100426.00
2018-07-21T15:18:46.081Z,100434.00
2018-07-21T15:21:15.459Z,100435.00
2018-07-21T15:23:44.643Z,100426.00
2018-07-21T15:26:13.990Z,100429.00
2018-07-21T15:28:43.075Z,100429.00
2018-07-21T15:31:12.391Z,100426.00
2018-07-21T15:33:41.525Z,100422.00
2018-07-21T15:36:10.863Z,100426.00
2018-07-21T15:38:40.012Z,100426.00
2018-07-21T15:41:09.246Z,100430.00
2018-07-21T15:43:38.351Z,100423.00
2018-07-21T15:46:07.471Z,100432.00
2018-07-21T15:48:36.623Z,100426.00
2018-07-21T15:51:05.790Z,100424.00
2018-07-21T15:53:34.941Z,100432.00
2018-07-21T15:56:04.176Z,100424.00
2018-07-21T15:58:33.325Z,100410.00
2018-07-21T16:01:02.433Z,100421.00
2018-07-21T16:03:31.547Z,100414.00
2018-07-21T16:06:01.048Z,100420.00
2018-07-21T16:08:30.283Z,100412.00
2018-07-21T16:10:59.376Z,100410.00
2018-07-21T16:13:28.771Z,100408.00
2018-07-21T16:15:58.484Z,100401.00
2018-07-21T16:18:27.628Z,100410.00
2018-07-21T16:20:56.838Z,100405.00
2018-07-21T16:23:26.049Z,100403.00
2018-07-21T16:25:55.408Z,100397.00
2018-07-21T16:28:24.671Z,100394.00
2018-07-21T16:30:54.000Z,100393.00
2018-07-21T16:33:24.598Z,100389.00
2018-07-21T16:35:53.884Z,100401.00
2018-07-21T16:38:23.511Z,100384.00
2018-07-21T16:40:52.622Z,100389.00
2018-07-21T16:43:21.791Z,100385.00
2018-07-21T16:45:51.133Z,100385.00
2018-07-21T16:48:20.345Z,100383.00
2018-07-21T16:50:49.694Z,100380.00
2018-07-21T16:53:18.925Z,100383.00
2018-07-21T16:55:48.152Z,100383.00
2018-07-21T16:58:18.045Z,100376.00
2018-07-21T17:00:47.164Z,100376.00
2018-07-21T17:03:16.458Z,100375.00
2018-07-21T17:05:45.378Z,100376.00
2018-07-21T17:08:14.750Z,100377.00
2018-07-21T17:10:43.924Z,100365.00
2018-07-21T17:13:13.050Z,100379.00
2018-07-21T17:15:42.447Z,100340.00
2018-07-21T17:18:11.971Z,100371.00
2018-07-21T17:20:41.526Z,100370.00
2018-07-21T17:23:11.111Z,100370.00
2018-07-21T17:25:40.834Z,100372.00
2018-07-21T17:28:10.166Z,100372.00
2018-07-21T17:30:39.748Z,100370.00
2018-07-21T17:33:09.326Z,100361.00
2018-07-21T17:35:39.066Z,100366.00
2018-07-21T17:38:08.404Z,100358.00
2018-07-21T17:40:37.499Z,100356.00
2018-07-21T17:43:07.311Z,100356.00
2018-07-21T17:45:37.053Z,100361.00
2018-07-21T17:48:06.575Z,100351.00
2018-07-21T17:50:35.933Z,100356.00
2018-07-21T17:53:05.900Z,100346.00
2018-07-21T17:55:35.574Z,100356.00
2018-07-21T17:58:04.802Z,100349.00
2018-07-21T18:00:33.995Z,100349.00
2018-07-21T18:03:03.421Z,100348.00
2018-07-21T18:05:32.663Z,100338.00
2018-07-21T18:08:01.824Z,100334.00
2018-07-21T18:10:31.040Z,100339.00
2018-07-21T18:13:00.269Z,100341.00
2018-07-21T18:15:29.425Z,100335.00
2018-07-21T18:17:58.636Z,100340.00
2018-07-21T18:20:27.845Z,100335.00
2018-07-21T18:22:56.983Z,100333.00
2018-07-21T18:25:26.230Z,100325.00
2018-07-21T18:27:55.353Z,100334.00
2018-07-21T18:30:24.512Z,100335.00
2018-07-21T18:32:53.881Z,100335.00
2018-07-21T18:35:23.382Z,100337.00
2018-07-21T18:37:52.627Z,100338.00
2018-07-21T18:40:21.935Z,100340.00
2018-07-21T18:42:51.780Z,100341.00
2018-07-21T18:45:21.213Z,100342.00
2018-07-21T18:47:50.689Z,100342.00
2018-07-21T18:50:20.249Z,100342.00
2018-07-21T18:52:50.192Z,100341.00
2018-07-21T18:55:20.195Z,100340.00
2018-07-21T18:57:49.840Z,100339.00
2018-07-21T19:00:19.666Z,100340.00
2018-07-21T19:02:49.776Z,100350.00
2018-07-21T19:05:19.546Z,100345.00
2018-07-21T19:07:50.007Z,100334.00
2018-07-21T19:10:19.548Z,100339.00
2018-07-21T19:12:50.465Z,100349.00
2018-07-21T19:15:25.436Z,100345.00
2018-07-21T19:17:55.157Z,100344.00
2018-07-21T19:20:29.747Z,100350.00
2018-07-21T19:22:59.139Z,100346.00
2018-07-21T19:26:37.027Z,100357.00
2018-07-21T19:29:06.217Z,100356.00
2018-07-21T19:31:35.456Z,100356.00
2018-07-21T19:34:05.027Z,100362.00
2018-07-21T19:36:34.204Z,100348.00
2018-07-21T19:39:03.653Z,100360.00
2018-07-21T19:41:37.940Z,100352.00
2018-07-21T19:44:07.235Z,100359.00
2018-07-21T19:46:36.347Z,100357.00
2018-07-21T19:49:05.997Z,100373.00
2018-07-21T19:51:35.291Z,100366.00
2018-07-21T19:54:05.426Z,100368.00
2018-07-21T19:56:34.833Z,100363.00
2018-07-21T19:59:04.375Z,100370.00
2018-07-21T20:01:33.703Z,100369.00
2018-07-21T20:04:03.079Z,100369.00
2018-07-21T20:06:32.401Z,100368.00
2018-07-21T20:09:01.929Z,100373.00
2018-07-21T20:11:31.577Z,100368.00
2018-07-21T20:14:01.117Z,100368.00
2018-07-21T20:16:30.568Z,100370.00
2018-07-21T20:19:00.087Z,100378.00
2018-07-21T20:21:30.295Z,100384.00
2018-07-21T20:23:59.817Z,100386.00
2018-07-21T20:26:29.182Z,100390.00
2018-07-21T20:28:58.432Z,100385.00
2018-07-21T20:31:27.625Z,100390.00
2018-07-21T20:33:56.583Z,100383.00
2018-07-21T20:36:25.820Z,100385.00
2018-07-21T20:38:54.999Z,100385.00
2018-07-21T20:41:24.220Z,100385.00
2018-07-21T20:43:53.426Z,100385.00
2018-07-21T20:46:22.584Z,100384.00
2018-07-21T20:48:51.870Z,100380.00
2018-07-21T20:51:21.045Z,100383.00
2018-07-21T20:53:50.274Z,100383.00
2018-07-21T20:56:19.814Z,100387.00
2018-07-21T20:58:49.115Z,100387.00
2018-07-21T21:01:18.826Z,100381.00
2018-07-21T21:03:48.021Z,100387.00
2018-07-21T21:06:17.350Z,100390.00
2018-07-21T21:08:46.946Z,100395.00
2018-07-21T21:11:16.267Z,100394.00
2018-07-21T21:13:45.624Z,100392.00
2018-07-21T21:16:14.910Z,100391.00
2018-07-21T21:18:44.826Z,100391.00
2018-07-21T21:21:14.185Z,100385.00
2018-07-21T21:23:43.542Z,100388.00
2018-07-21T21:26:13.939Z,100389.00
2018-07-21T21:28:43.528Z,100393.00
2018-07-21T21:31:12.910Z,100387.00
2018-07-21T21:33:42.209Z,100383.00
2018-07-21T21:36:11.479Z,100385.00
2018-07-21T21:38:49.254Z,100387.00
2018-07-21T21:41:18.697Z,100381.00
2018-07-21T21:43:48.051Z,100386.00
2018-07-21T21:46:17.575Z,100389.00
2018-07-21T21:48:47.214Z,100384.00
2018-07-21T21:51:17.031Z,100389.00
2018-07-21T21:53:46.249Z,100387.00
2018-07-21T21:56:15.807Z,100394.00
2018-07-21T21:58:45.447Z,100385.00
2018-07-21T22:01:15.161Z,100387.00
2018-07-21T22:03:44.831Z,100388.00
2018-07-21T22:06:14.153Z,100385.00
2018-07-21T22:08:43.333Z,100389.00
2018-07-21T22:11:12.519Z,100384.00
2018-07-21T22:13:41.690Z,100386.00
2018-07-21T22:16:10.738Z,100382.00
2018-07-21T22:18:39.899Z,100386.00
2018-07-21T22:21:09.167Z,100383.00
2018-07-21T22:23:38.284Z,100386.00
2018-07-21T22:26:07.489Z,100381.00
2018-07-21T22:28:36.722Z,100387.00
2018-07-21T22:31:06.013Z,100385.00
2018-07-21T22:33:35.170Z,100390.00
2018-07-21T22:36:04.394Z,100387.00
2018-07-21T22:38:33.523Z,100387.00
2018-07-21T22:41:02.666Z,100388.00
2018-07-21T22:43:31.785Z,100386.00
2018-07-21T22:46:01.112Z,100387.00
2018-07-21T22:48:30.262Z,100388.00
2018-07-21T22:50:59.467Z,100385.00
2018-07-21T22:53:28.793Z,100392.00
2018-07-21T22:55:58.004Z,100384.00
2018-07-21T22:58:27.359Z,100387.00
2018-07-21T23:00:56.953Z,100388.00
2018-07-21T23:03:26.255Z,100392.00
2018-07-21T23:05:55.326Z,100390.00
2018-07-21T23:08:24.450Z,100387.00
2018-07-21T23:10:53.543Z,100387.00
2018-07-21T23:13:22.775Z,100379.00
2018-07-21T23:15:51.838Z,100389.00
2018-07-21T23:18:21.054Z,100383.00
2018-07-21T23:20:50.428Z,100382.00
2018-07-21T23:23:20.300Z,100386.00
2018-07-21T23:25:49.571Z,100374.00
2018-07-21T23:28:18.814Z,100379.00
2018-07-21T23:30:48.122Z,100375.00
2018-07-21T23:33:17.289Z,100373.00
2018-07-21T23:35:46.718Z,100377.00
2018-07-21T23:38:16.027Z,100380.00
2018-07-21T23:40:45.371Z,100378.00
2018-07-21T23:43:14.564Z,100377.00
2018-07-21T23:45:43.756Z,100380.00
2018-07-21T23:48:13.200Z,100377.00
2018-07-21T23:50:42.391Z,100377.00
2018-07-21T23:53:11.593Z,100377.00
2018-07-21T23:55:41.001Z,100380.00
2018-07-21T23:58:10.283Z,100384.00
